Pitkin, LA (70656)

10:26 AM CDT on March 29, 2017 (GMT -0500)
Fort Polk | | Change Station

Elev 308 ft 31.02 °N, 92.91 °W | Updated 32 minutes ago

Mostly Cloudy
Mostly Cloudy
76 °F
Feels Like 76 °F
N
4
Wind Variable Wind from Variable

Today
High -- | Low -- °F
--% Chance of Precip.
Yesterday
High -- | Low -- °F
Precip. -- in
Pressure 29.98 in
Visibility 10.0 miles
Clouds Few 2000 ft
Scattered Clouds 2600 ft
Mostly Cloudy 3000 ft
Dew Point 66 °F
Humidity 71%
Rainfall 0.00 in
Snow Depth Not available.
7:03 AM 7:29 PM
Waxing Crescent, 3% visible
METAR KBKB 291454Z AUTO VRB03KT 10SM FEW020 SCT026 BKN030 24/19 A2990 RMK AO2 SLP151 T02440189 50004
Pressure 29.98 in
Visibility 10.0 miles
Clouds Few 2000 ft
Scattered Clouds 2600 ft
Mostly Cloudy 3000 ft
Dew Point 66 °F
Humidity 71%
Rainfall 0.00 in
Snow Depth Not available.
7:03 AM 7:29 PM
Waxing Crescent, 3% visible
METAR KBKB 291454Z AUTO VRB03KT 10SM FEW020 SCT026 BKN030 24/19 A2990 RMK AO2 SLP151 T02440189 50004

Get Severe Weather Alerts

Thanks for signing up!

Be on the lookout for a verification email in your inbox.

You'll start receiving the daily forecast at 8 AM.

×

10-Day Weather Forecast

Almanac

Astronomy

Mar. 29, 2017 Rise Set
Actual Time
Civil Twilight
Nautical Twilight
Astronomical Twilight
Moon
Length of Visible Light
Length of Day
Tomorrow will be .
, % of the Moon is Illuminated

Today's Extremes

State Highs State Lows

Community

WunderPhotos

Upload Photos

1,962,540 photos uploaded!

WunderBlog® & News

Nearby

Air Quality

  Air Quality AQ Index Pollutant
Not available.

Snow Depth

Station Depth Elevation

Earthquake Activity

City Distance Mag. Time & Date
Minimum magnitude displayed is 2.5.

Earthquake Activity

City Distance Mag. Time & Date
Minimum magnitude displayed is 2.5.

Coastal Water Temperatures

Place Temperature

Stations

Nearby Weather Stations

Station Location Temp. Windchill Dew Point Humidity Wind Precip. Elev Updated Type
                   

Watches & Warnings

There are currently no watches in effect.